Time;durP1;ratioP1;P1;durP2;ratioP2;P2;SDS_P1;SDS_P2;PMS_P1;PMS_P2;Temp;Humidity;BMP_temperature;BMP_pressure;BME280_temperature;BME280_humidity;BME280_pressure;Samples;Min_cycle;Max_cycle;Signal;HPM_P1;HPM_P2
2022/03/09 00:01:36;;;;;;;77.05;43.40;;;;;;;;;;5038906;28;20037;-73
2022/03/09 00:04:02;;;;;;;86.53;48.00;;;;;;;;;;5036393;28;20618;-72
2022/03/09 00:06:28;;;;;;;78.00;42.47;;;;;;;;;;5036937;28;20030;-73
2022/03/09 00:08:54;;;;;;;88.10;45.80;;;;;;;;;;5047398;28;20033;-72
2022/03/09 00:11:20;;;;;;;64.32;38.45;;;;;;;;;;5035566;28;20033;-73
2022/03/09 00:13:47;;;;;;;89.85;51.42;;;;;;;;;;5036262;28;20037;-73
2022/03/09 00:16:13;;;;;;;94.63;55.33;;;;;;;;;;5035473;28;20110;-72
2022/03/09 00:18:39;;;;;;;86.00;49.40;;;;;;;;;;5034870;28;20040;-72
2022/03/09 00:21:05;;;;;;;81.82;45.42;;;;;;;;;;5040264;28;20032;-72
2022/03/09 00:23:31;;;;;;;66.90;38.47;;;;;;;;;;5039081;28;20057;-73
2022/03/09 00:25:57;;;;;;;70.60;41.70;;;;;;;;;;5037841;28;20045;-73
2022/03/09 00:28:23;;;;;;;66.88;38.25;;;;;;;;;;5034732;28;20758;-73
2022/03/09 00:30:49;;;;;;;71.65;38.50;;;;;;;;;;5051296;28;20036;-73
2022/03/09 00:33:15;;;;;;;68.68;38.30;;;;;;;;;;5035698;28;20561;-73
2022/03/09 00:35:42;;;;;;;70.90;35.95;;;;;;;;;;5045796;28;20124;-73
2022/03/09 00:38:08;;;;;;;61.15;34.10;;;;;;;;;;5046086;28;20139;-73
2022/03/09 00:40:34;;;;;;;62.75;35.35;;;;;;;;;;5038869;28;20034;-73
2022/03/09 00:43:01;;;;;;;71.63;35.28;;;;;;;;;;5049698;28;20554;-73
2022/03/09 00:45:27;;;;;;;60.80;36.63;;;;;;;;;;5035472;28;20108;-73
2022/03/09 00:47:53;;;;;;;72.18;40.85;;;;;;;;;;5043624;28;20116;-73
2022/03/09 00:50:19;;;;;;;67.28;38.08;;;;;;;;;;5042915;28;20471;-73
2022/03/09 00:52:47;;;;;;;78.32;43.72;;;;;;;;;;5040630;28;20041;-72
2022/03/09 00:55:13;;;;;;;77.95;43.70;;;;;;;;;;5033638;28;20056;-72
2022/03/09 00:57:39;;;;;;;70.10;37.97;;;;;;;;;;5059895;28;20040;-73
2022/03/09 01:00:06;;;;;;;65.55;35.58;;;;;;;;;;5044431;28;20444;-72
2022/03/09 01:02:32;;;;;;;56.22;34.17;;;;;;;;;;5043995;28;20063;-72
2022/03/09 01:04:58;;;;;;;62.78;35.03;;;;;;;;;;5042685;28;20387;-73
2022/03/09 01:07:24;;;;;;;54.20;31.98;;;;;;;;;;5035341;28;20029;-73
2022/03/09 01:09:50;;;;;;;58.42;30.08;;;;;;;;;;5036852;28;20633;-72
2022/03/09 01:12:16;;;;;;;60.42;34.20;;;;;;;;;;5045862;28;20033;-72
2022/03/09 01:14:42;;;;;;;61.97;33.95;;;;;;;;;;5043111;28;20068;-73
2022/03/09 01:17:08;;;;;;;57.58;32.58;;;;;;;;;;5031119;28;20032;-72
2022/03/09 01:19:34;;;;;;;54.58;32.75;;;;;;;;;;5036264;28;20099;-73
2022/03/09 01:22:00;;;;;;;57.13;30.73;;;;;;;;;;5036586;28;20421;-73
2022/03/09 01:24:26;;;;;;;58.20;32.50;;;;;;;;;;5048331;28;20048;-73
2022/03/09 01:26:52;;;;;;;59.20;31.63;;;;;;;;;;5028982;28;20073;-72
2022/03/09 01:29:18;;;;;;;59.30;33.90;;;;;;;;;;5043073;28;20033;-72
2022/03/09 01:31:44;;;;;;;60.45;34.75;;;;;;;;;;5035244;28;20059;-73
2022/03/09 01:34:10;;;;;;;65.20;37.47;;;;;;;;;;5041773;28;20037;-73
2022/03/09 01:36:37;;;;;;;57.88;30.67;;;;;;;;;;5033301;28;20029;-72
2022/03/09 01:39:03;;;;;;;56.17;31.88;;;;;;;;;;5053158;28;20029;-73
2022/03/09 01:41:29;;;;;;;51.72;30.25;;;;;;;;;;5038492;28;20040;-73
2022/03/09 01:44:24;;;;;;;55.60;30.77;;;;;;;;;;5029343;28;20033;-72
2022/03/09 01:46:52;;;;;;;61.38;32.60;;;;;;;;;;5033607;28;20542;-73
2022/03/09 01:49:18;;;;;;;51.42;31.80;;;;;;;;;;5040289;28;20034;-73
2022/03/09 01:51:45;;;;;;;52.10;28.42;;;;;;;;;;5045368;28;20028;-73
2022/03/09 01:54:11;;;;;;;50.08;29.15;;;;;;;;;;5037146;28;20041;-72
2022/03/09 01:56:37;;;;;;;56.47;31.92;;;;;;;;;;5043404;28;20527;-72
2022/03/09 01:59:04;;;;;;;55.67;32.03;;;;;;;;;;5038789;28;20029;-73
2022/03/09 02:01:30;;;;;;;55.45;32.17;;;;;;;;;;5042729;28;20044;-72
2022/03/09 02:03:57;;;;;;;63.35;34.53;;;;;;;;;;5037716;28;20479;-73
2022/03/09 02:06:23;;;;;;;58.10;30.17;;;;;;;;;;5040121;28;20040;-73
2022/03/09 02:11:34;;;;;;;47.63;26.92;;;;;;;;;;5038087;28;20052;-72
2022/03/09 02:14:01;;;;;;;53.95;30.30;;;;;;;;;;5027273;28;20042;-73
2022/03/09 02:16:27;;;;;;;55.22;31.95;;;;;;;;;;5042319;28;20033;-72
2022/03/09 02:18:53;;;;;;;56.70;30.05;;;;;;;;;;5035656;28;20031;-73
2022/03/09 02:21:20;;;;;;;49.25;29.45;;;;;;;;;;5038435;28;20584;-73
2022/03/09 02:23:46;;;;;;;49.83;27.25;;;;;;;;;;5029550;28;20057;-73
2022/03/09 02:26:12;;;;;;;53.83;31.75;;;;;;;;;;5034533;28;20037;-72
2022/03/09 02:28:39;;;;;;;52.15;29.83;;;;;;;;;;5043009;28;20037;-72
2022/03/09 02:31:05;;;;;;;58.85;33.60;;;;;;;;;;5039096;28;20028;-73
2022/03/09 02:33:31;;;;;;;58.45;32.95;;;;;;;;;;5044231;28;20112;-72
2022/03/09 02:35:57;;;;;;;60.65;32.65;;;;;;;;;;5040355;28;20057;-73
2022/03/09 02:38:23;;;;;;;55.10;29.75;;;;;;;;;;5044429;28;20037;-73
2022/03/09 02:40:49;;;;;;;62.00;30.85;;;;;;;;;;5036803;28;20032;-73
2022/03/09 02:43:15;;;;;;;58.53;32.15;;;;;;;;;;5044358;28;20029;-73
2022/03/09 02:45:41;;;;;;;53.70;28.25;;;;;;;;;;5039093;28;20037;-73
2022/03/09 02:48:07;;;;;;;56.13;30.13;;;;;;;;;;5040478;28;20748;-73
2022/03/09 02:50:33;;;;;;;54.28;29.65;;;;;;;;;;5043123;28;20115;-73
2022/03/09 02:52:59;;;;;;;57.72;29.98;;;;;;;;;;5042098;28;20483;-73
2022/03/09 02:55:25;;;;;;;53.42;28.77;;;;;;;;;;5034935;28;20059;-73
2022/03/09 02:57:51;;;;;;;51.25;28.92;;;;;;;;;;5041555;28;20109;-73
2022/03/09 03:00:17;;;;;;;53.28;26.23;;;;;;;;;;5035435;28;20111;-73
2022/03/09 03:02:43;;;;;;;48.53;27.33;;;;;;;;;;5034570;28;20036;-73
2022/03/09 03:05:10;;;;;;;43.72;25.05;;;;;;;;;;5046072;28;20112;-73
2022/03/09 03:07:36;;;;;;;46.65;25.60;;;;;;;;;;5034985;28;20044;-73
2022/03/09 03:10:03;;;;;;;94.25;49.75;;;;;;;;;;5035342;28;20794;-73
2022/03/09 03:12:29;;;;;;;128.82;66.32;;;;;;;;;;5037267;28;20029;-73
2022/03/09 03:14:55;;;;;;;90.43;47.90;;;;;;;;;;5039342;28;20037;-72
2022/03/09 03:17:21;;;;;;;89.80;48.95;;;;;;;;;;5034914;28;20716;-72
2022/03/09 03:19:47;;;;;;;79.05;43.80;;;;;;;;;;5038990;28;20044;-72
2022/03/09 03:22:13;;;;;;;55.30;31.27;;;;;;;;;;5040020;28;20054;-73
2022/03/09 03:24:39;;;;;;;51.03;27.98;;;;;;;;;;5042712;28;20041;-73
2022/03/09 03:27:05;;;;;;;49.17;26.65;;;;;;;;;;5040478;28;20052;-73
2022/03/09 03:29:31;;;;;;;44.55;25.20;;;;;;;;;;5046616;28;20041;-73
2022/03/09 03:31:57;;;;;;;39.88;23.88;;;;;;;;;;5044112;28;20354;-72
2022/03/09 03:34:23;;;;;;;41.30;24.80;;;;;;;;;;5037615;28;20065;-72
2022/03/09 03:36:49;;;;;;;40.83;23.63;;;;;;;;;;5029121;28;20108;-72
2022/03/09 03:39:15;;;;;;;44.25;23.85;;;;;;;;;;5033462;28;20030;-73
2022/03/09 03:41:41;;;;;;;41.05;23.48;;;;;;;;;;5040359;28;20029;-72
2022/03/09 03:44:07;;;;;;;38.05;22.75;;;;;;;;;;5038683;28;20029;-73
2022/03/09 03:46:34;;;;;;;40.03;23.27;;;;;;;;;;5045975;28;20108;-73
2022/03/09 03:49:00;;;;;;;48.40;24.90;;;;;;;;;;5039859;28;20200;-72
2022/03/09 03:51:26;;;;;;;43.10;22.67;;;;;;;;;;5039960;28;20798;-73
2022/03/09 03:53:52;;;;;;;43.90;22.20;;;;;;;;;;5031518;28;20025;-72
2022/03/09 03:56:18;;;;;;;43.70;22.60;;;;;;;;;;5045273;28;20119;-72
2022/03/09 03:58:44;;;;;;;41.67;22.65;;;;;;;;;;5038856;28;20104;-72
2022/03/09 04:01:10;;;;;;;43.33;23.77;;;;;;;;;;5044059;28;20427;-72
2022/03/09 04:03:36;;;;;;;44.97;25.30;;;;;;;;;;5038945;28;20033;-73
2022/03/09 04:06:02;;;;;;;41.15;23.73;;;;;;;;;;5059390;28;20025;-73
2022/03/09 04:08:28;;;;;;;45.28;24.85;;;;;;;;;;5046842;28;20040;-72
2022/03/09 04:10:54;;;;;;;51.50;25.13;;;;;;;;;;5046304;28;20032;-72
2022/03/09 04:13:20;;;;;;;39.58;23.02;;;;;;;;;;5042967;28;20675;-72
2022/03/09 04:15:46;;;;;;;44.00;27.45;;;;;;;;;;5035598;28;20039;-73
2022/03/09 04:18:12;;;;;;;50.10;28.13;;;;;;;;;;5037950;28;20037;-73
2022/03/09 04:20:38;;;;;;;44.80;25.27;;;;;;;;;;5037612;28;20660;-72
2022/03/09 04:23:08;;;;;;;49.42;28.17;;;;;;;;;;5037923;28;20160;-73
2022/03/09 04:25:35;;;;;;;47.03;28.15;;;;;;;;;;5038355;28;20036;-73
2022/03/09 04:28:01;;;;;;;44.38;25.27;;;;;;;;;;5047376;28;20558;-73
2022/03/09 04:30:27;;;;;;;44.00;24.50;;;;;;;;;;5048090;28;20025;-72
2022/03/09 04:32:53;;;;;;;43.40;23.63;;;;;;;;;;5035543;28;20037;-72
2022/03/09 04:35:19;;;;;;;44.33;26.10;;;;;;;;;;5039151;28;20033;-72
2022/03/09 04:37:45;;;;;;;45.75;24.10;;;;;;;;;;5038657;28;20099;-73
2022/03/09 04:40:11;;;;;;;44.10;25.30;;;;;;;;;;5042238;28;20115;-72
2022/03/09 04:42:37;;;;;;;44.30;26.50;;;;;;;;;;5053089;28;20143;-72
2022/03/09 04:45:04;;;;;;;45.53;25.80;;;;;;;;;;5039896;28;20086;-73
2022/03/09 04:47:30;;;;;;;48.05;25.92;;;;;;;;;;5045086;28;20033;-73
2022/03/09 04:49:56;;;;;;;49.20;25.40;;;;;;;;;;5040641;28;20478;-72
2022/03/09 04:52:22;;;;;;;45.67;26.05;;;;;;;;;;5036320;28;20073;-73
2022/03/09 04:54:48;;;;;;;48.83;26.05;;;;;;;;;;5044598;28;20120;-72
2022/03/09 04:57:15;;;;;;;48.72;25.88;;;;;;;;;;5031368;28;20029;-72
2022/03/09 04:59:41;;;;;;;46.97;24.73;;;;;;;;;;5027920;28;20025;-72
2022/03/09 05:02:07;;;;;;;50.03;25.17;;;;;;;;;;5042988;28;20041;-72
2022/03/09 05:04:33;;;;;;;53.00;27.02;;;;;;;;;;5035811;28;20047;-73
2022/03/09 05:06:59;;;;;;;52.00;26.55;;;;;;;;;;5043789;28;20610;-73
2022/03/09 05:09:25;;;;;;;56.65;29.92;;;;;;;;;;5033291;28;20068;-70
2022/03/09 05:11:51;;;;;;;60.90;32.50;;;;;;;;;;5036499;28;20064;-73
2022/03/09 05:14:17;;;;;;;59.10;31.75;;;;;;;;;;5034135;28;20033;-73
2022/03/09 05:16:43;;;;;;;57.00;30.50;;;;;;;;;;5064449;28;20033;-72
2022/03/09 05:19:10;;;;;;;59.45;31.90;;;;;;;;;;5034882;28;20047;-73
2022/03/09 05:21:36;;;;;;;51.85;29.10;;;;;;;;;;5043749;28;20033;-73
2022/03/09 05:24:02;;;;;;;52.90;28.10;;;;;;;;;;5032935;28;20116;-73
2022/03/09 05:26:28;;;;;;;52.75;27.27;;;;;;;;;;5045120;28;20502;-73
2022/03/09 05:28:56;;;;;;;53.03;26.65;;;;;;;;;;5042113;28;20496;-73
2022/03/09 05:31:22;;;;;;;48.40;26.33;;;;;;;;;;5044639;28;20447;-73
2022/03/09 05:33:48;;;;;;;49.40;27.05;;;;;;;;;;5037217;28;20608;-73
2022/03/09 05:36:14;;;;;;;52.95;29.02;;;;;;;;;;5043730;28;20112;-73
2022/03/09 05:38:40;;;;;;;44.25;24.67;;;;;;;;;;5040826;28;20034;-73
2022/03/09 05:41:06;;;;;;;47.45;26.15;;;;;;;;;;5041095;28;20613;-72
2022/03/09 05:43:32;;;;;;;48.67;25.52;;;;;;;;;;5035053;28;20057;-72
2022/03/09 05:45:58;;;;;;;52.42;31.50;;;;;;;;;;5039578;28;20051;-73
2022/03/09 05:48:24;;;;;;;53.40;26.30;;;;;;;;;;5029240;28;20033;-73
2022/03/09 05:50:50;;;;;;;46.78;26.85;;;;;;;;;;5033080;28;20419;-73
2022/03/09 05:53:16;;;;;;;50.40;30.98;;;;;;;;;;5052219;28;20033;-72
2022/03/09 05:55:42;;;;;;;45.53;26.60;;;;;;;;;;5032457;28;20033;-73
2022/03/09 05:58:08;;;;;;;47.30;27.58;;;;;;;;;;5043067;28;20022;-73
2022/03/09 06:00:34;;;;;;;44.33;27.33;;;;;;;;;;5033442;28;20036;-73
2022/03/09 06:03:00;;;;;;;50.70;28.75;;;;;;;;;;5037988;28;20107;-73
2022/03/09 06:05:27;;;;;;;49.30;26.65;;;;;;;;;;5047687;28;20037;-72
2022/03/09 06:07:52;;;;;;;51.95;27.85;;;;;;;;;;5043629;28;20037;-73
2022/03/09 06:10:19;;;;;;;53.08;29.90;;;;;;;;;;5036116;28;20091;-73
2022/03/09 06:12:45;;;;;;;61.17;29.02;;;;;;;;;;5037806;28;20033;-72
2022/03/09 06:15:11;;;;;;;57.35;31.20;;;;;;;;;;5038870;28;20416;-73
2022/03/09 06:17:47;;;;;;;55.22;28.88;;;;;;;;;;5039539;28;20468;-73
2022/03/09 06:20:15;;;;;;;56.33;29.00;;;;;;;;;;5042946;28;20052;-73
2022/03/09 06:22:41;;;;;;;60.53;31.73;;;;;;;;;;5040944;28;20053;-73
2022/03/09 06:25:07;;;;;;;52.70;29.60;;;;;;;;;;5040927;28;20043;-72
2022/03/09 06:27:40;;;;;;;49.83;29.95;;;;;;;;;;5045199;28;20025;-73
2022/03/09 06:30:07;;;;;;;52.83;28.80;;;;;;;;;;5029420;28;20039;-72
2022/03/09 06:32:34;;;;;;;54.00;28.50;;;;;;;;;;5047895;28;20025;-72
2022/03/09 06:35:00;;;;;;;53.38;28.05;;;;;;;;;;5045400;28;20040;-73
2022/03/09 06:37:26;;;;;;;54.00;29.67;;;;;;;;;;5043855;28;20035;-72
2022/03/09 06:39:56;;;;;;;53.65;30.20;;;;;;;;;;5038402;28;20746;-72
2022/03/09 06:42:22;;;;;;;51.88;28.15;;;;;;;;;;5042784;28;20525;-73
2022/03/09 06:44:48;;;;;;;50.45;28.63;;;;;;;;;;5049704;28;20040;-73
2022/03/09 06:47:14;;;;;;;59.25;30.48;;;;;;;;;;5045776;28;20025;-72
2022/03/09 06:49:40;;;;;;;58.28;33.45;;;;;;;;;;5033995;28;20120;-72
2022/03/09 06:52:07;;;;;;;49.45;28.00;;;;;;;;;;5044142;28;20040;-72
2022/03/09 06:54:33;;;;;;;65.38;31.30;;;;;;;;;;5045019;28;20106;-72
2022/03/09 06:56:59;;;;;;;63.47;32.65;;;;;;;;;;5039488;28;20025;-72
2022/03/09 06:59:25;;;;;;;47.63;26.70;;;;;;;;;;5044232;28;20503;-71
2022/03/09 07:01:51;;;;;;;145.10;75.80;;;;;;;;;;5047855;28;20036;-72
2022/03/09 07:04:17;;;;;;;131.75;68.57;;;;;;;;;;5044046;28;20041;-72
2022/03/09 07:06:43;;;;;;;84.68;45.67;;;;;;;;;;5045878;28;20120;-72
2022/03/09 07:09:09;;;;;;;72.75;38.90;;;;;;;;;;5049169;28;20072;-72
2022/03/09 07:11:35;;;;;;;66.70;34.47;;;;;;;;;;5039986;28;20061;-72
2022/03/09 07:14:01;;;;;;;61.45;33.40;;;;;;;;;;5048088;28;20044;-72
2022/03/09 07:16:27;;;;;;;59.08;31.08;;;;;;;;;;5040886;28;20034;-72
2022/03/09 07:18:53;;;;;;;57.83;28.27;;;;;;;;;;5033842;28;20069;-72
2022/03/09 07:21:19;;;;;;;65.20;32.80;;;;;;;;;;5043806;28;20057;-72
2022/03/09 07:23:45;;;;;;;57.20;32.33;;;;;;;;;;5039096;28;20053;-71
2022/03/09 07:26:11;;;;;;;52.00;29.95;;;;;;;;;;5039504;28;20084;-72
2022/03/09 07:28:37;;;;;;;55.38;29.73;;;;;;;;;;5045915;28;20033;-72
2022/03/09 07:31:03;;;;;;;59.35;31.02;;;;;;;;;;5046618;28;20621;-72
2022/03/09 07:33:29;;;;;;;60.08;33.67;;;;;;;;;;5041814;28;20041;-72
2022/03/09 07:35:56;;;;;;;50.10;30.27;;;;;;;;;;5047940;28;20028;-72
2022/03/09 07:38:22;;;;;;;59.42;29.38;;;;;;;;;;5047455;28;20032;-72
2022/03/09 07:40:49;;;;;;;55.47;31.90;;;;;;;;;;5035203;28;20638;-72
2022/03/09 07:43:15;;;;;;;59.58;31.65;;;;;;;;;;5041062;28;20064;-72
2022/03/09 07:45:41;;;;;;;55.22;30.17;;;;;;;;;;5035998;28;20053;-72
2022/03/09 07:48:08;;;;;;;60.95;32.13;;;;;;;;;;5043123;28;20043;-72
2022/03/09 07:50:34;;;;;;;56.08;33.53;;;;;;;;;;5046847;28;20519;-72
2022/03/09 07:53:00;;;;;;;57.13;33.05;;;;;;;;;;5045593;28;20502;-72
2022/03/09 07:55:26;;;;;;;55.33;29.92;;;;;;;;;;5046517;28;20067;-72
2022/03/09 07:57:52;;;;;;;51.45;30.77;;;;;;;;;;5036697;28;20056;-72
2022/03/09 08:00:18;;;;;;;57.33;30.95;;;;;;;;;;5047944;28;20103;-73
2022/03/09 08:02:45;;;;;;;54.60;30.70;;;;;;;;;;5039519;28;20029;-72
2022/03/09 08:05:11;;;;;;;62.80;31.30;;;;;;;;;;5042873;28;20045;-72
2022/03/09 08:07:37;;;;;;;59.85;32.25;;;;;;;;;;5038582;28;20037;-72
2022/03/09 08:10:04;;;;;;;62.42;32.72;;;;;;;;;;5043848;28;20034;-72
2022/03/09 08:12:31;;;;;;;58.10;29.33;;;;;;;;;;5042585;28;20068;-72
2022/03/09 08:14:57;;;;;;;54.03;30.75;;;;;;;;;;5039669;28;20032;-72
2022/03/09 08:17:23;;;;;;;51.50;27.80;;;;;;;;;;5045222;28;20032;-72
2022/03/09 08:19:49;;;;;;;53.65;28.55;;;;;;;;;;5045642;28;20047;-72
2022/03/09 08:22:15;;;;;;;48.92;29.33;;;;;;;;;;5034722;28;20053;-72
2022/03/09 08:24:41;;;;;;;56.85;29.63;;;;;;;;;;5043799;28;20345;-72
2022/03/09 08:27:07;;;;;;;55.40;28.02;;;;;;;;;;5041598;28;20111;-72
2022/03/09 08:29:33;;;;;;;52.50;30.02;;;;;;;;;;5039660;28;20047;-72
2022/03/09 08:31:59;;;;;;;45.88;27.42;;;;;;;;;;5042050;28;20033;-73
2022/03/09 08:34:25;;;;;;;52.03;29.08;;;;;;;;;;5048870;28;20059;-72
2022/03/09 08:36:51;;;;;;;50.10;29.77;;;;;;;;;;5042842;28;20495;-72
2022/03/09 08:39:17;;;;;;;49.58;29.10;;;;;;;;;;5047442;28;20388;-72
2022/03/09 08:41:46;;;;;;;47.83;27.20;;;;;;;;;;5038035;28;20368;-72
2022/03/09 08:44:12;;;;;;;51.47;29.77;;;;;;;;;;5051007;28;20036;-72
2022/03/09 08:46:38;;;;;;;49.33;28.38;;;;;;;;;;5039325;28;20120;-72
2022/03/09 08:49:04;;;;;;;42.55;24.80;;;;;;;;;;5038122;28;20073;-72
2022/03/09 08:51:30;;;;;;;44.90;26.83;;;;;;;;;;5037004;28;20049;-72
2022/03/09 08:53:56;;;;;;;49.47;26.65;;;;;;;;;;5048420;28;20041;-72
2022/03/09 08:56:22;;;;;;;43.95;27.80;;;;;;;;;;5046190;28;20111;-72
2022/03/09 08:58:48;;;;;;;45.42;27.73;;;;;;;;;;5041602;28;20124;-72
2022/03/09 09:01:14;;;;;;;43.45;25.20;;;;;;;;;;5040512;28;20144;-72
2022/03/09 09:03:40;;;;;;;42.97;25.13;;;;;;;;;;5041974;28;20317;-72
2022/03/09 09:06:06;;;;;;;41.95;24.17;;;;;;;;;;5044437;28;20031;-72
2022/03/09 09:08:32;;;;;;;43.05;24.20;;;;;;;;;;5046775;28;20547;-72
2022/03/09 09:10:58;;;;;;;40.55;24.65;;;;;;;;;;5042023;28;20029;-73
2022/03/09 09:13:24;;;;;;;35.05;23.23;;;;;;;;;;5047483;28;20045;-71
2022/03/09 09:15:50;;;;;;;37.78;21.00;;;;;;;;;;5050306;28;20788;-72
2022/03/09 09:18:16;;;;;;;40.70;24.13;;;;;;;;;;5050170;28;20033;-72
2022/03/09 09:20:42;;;;;;;42.05;23.70;;;;;;;;;;5040312;28;20053;-72
2022/03/09 09:23:08;;;;;;;40.63;23.52;;;;;;;;;;5044582;28;20076;-72
2022/03/09 09:25:34;;;;;;;41.45;24.63;;;;;;;;;;5047256;28;20033;-72
2022/03/09 09:28:01;;;;;;;38.53;23.70;;;;;;;;;;5042132;28;20129;-72
2022/03/09 09:30:27;;;;;;;41.00;24.45;;;;;;;;;;5035813;28;20541;-71
2022/03/09 09:32:53;;;;;;;37.80;23.30;;;;;;;;;;5049220;28;20032;-72
2022/03/09 09:35:19;;;;;;;37.20;23.75;;;;;;;;;;5050185;28;20087;-72
2022/03/09 09:37:46;;;;;;;40.63;23.67;;;;;;;;;;5036269;28;20025;-72
2022/03/09 09:40:13;;;;;;;39.70;23.30;;;;;;;;;;5045798;28;20423;-72
2022/03/09 09:42:39;;;;;;;37.72;23.25;;;;;;;;;;5049150;28;20037;-71
2022/03/09 09:45:07;;;;;;;40.35;23.05;;;;;;;;;;5046918;28;20546;-72
2022/03/09 09:47:33;;;;;;;40.58;24.33;;;;;;;;;;5028543;28;20037;-72
2022/03/09 09:50:02;;;;;;;36.95;21.55;;;;;;;;;;5048987;28;20535;-72
2022/03/09 09:52:28;;;;;;;36.20;22.98;;;;;;;;;;5049137;28;20033;-71
2022/03/09 09:54:55;;;;;;;41.60;24.77;;;;;;;;;;5040064;28;20408;-72
2022/03/09 09:57:22;;;;;;;42.72;23.98;;;;;;;;;;5037797;28;20036;-72
2022/03/09 09:59:48;;;;;;;35.83;21.08;;;;;;;;;;5042035;28;20033;-71
2022/03/09 10:02:14;;;;;;;39.97;23.48;;;;;;;;;;5044271;28;20033;-72
2022/03/09 10:04:40;;;;;;;39.38;23.25;;;;;;;;;;5045902;28;20109;-72
2022/03/09 10:07:06;;;;;;;43.10;21.75;;;;;;;;;;5045537;28;20033;-72
2022/03/09 10:09:36;;;;;;;34.40;22.63;;;;;;;;;;5042864;28;20114;-72
2022/03/09 10:12:04;;;;;;;35.35;22.35;;;;;;;;;;5035595;28;20048;-72
2022/03/09 10:14:39;;;;;;;33.90;22.77;;;;;;;;;;5036531;28;20041;-72
2022/03/09 10:17:06;;;;;;;34.88;21.67;;;;;;;;;;5045945;28;20087;-72
2022/03/09 10:19:37;;;;;;;40.10;23.27;;;;;;;;;;5048580;28;20037;-72
2022/03/09 10:22:24;;;;;;;36.75;22.20;;;;;;;;;;5046842;28;20040;-72
2022/03/09 10:24:50;;;;;;;35.83;22.77;;;;;;;;;;5037652;28;20049;-72
2022/03/09 10:27:34;;;;;;;35.92;22.45;;;;;;;;;;5037130;28;20030;-72
2022/03/09 10:30:02;;;;;;;37.65;21.27;;;;;;;;;;5043950;28;20870;-72
2022/03/09 10:32:46;;;;;;;32.25;20.13;;;;;;;;;;5037476;28;20127;-72
2022/03/09 10:35:13;;;;;;;35.17;21.38;;;;;;;;;;5038103;28;20048;-71
2022/03/09 10:37:40;;;;;;;37.10;20.50;;;;;;;;;;5036451;28;20029;-72
2022/03/09 10:40:10;;;;;;;29.85;19.17;;;;;;;;;;5039537;28;20037;-71
2022/03/09 10:42:36;;;;;;;33.00;19.92;;;;;;;;;;5039123;28;20037;-72
2022/03/09 10:45:05;;;;;;;35.05;22.85;;;;;;;;;;5047808;28;20112;-71
2022/03/09 10:47:32;;;;;;;34.78;19.83;;;;;;;;;;5045487;28;20558;-72
2022/03/09 10:50:17;;;;;;;32.92;20.92;;;;;;;;;;5036721;28;20052;-72
2022/03/09 10:52:43;;;;;;;32.58;18.65;;;;;;;;;;5036860;28;20033;-72
2022/03/09 10:55:27;;;;;;;30.65;19.40;;;;;;;;;;5041979;28;20045;-72
2022/03/09 10:58:06;;;;;;;30.48;17.65;;;;;;;;;;5042847;28;20662;-71
2022/03/09 11:00:39;;;;;;;29.17;18.75;;;;;;;;;;5037804;28;20037;-72
2022/03/09 11:03:13;;;;;;;29.77;20.08;;;;;;;;;;5047222;28;20053;-71
2022/03/09 11:05:47;;;;;;;32.20;18.58;;;;;;;;;;5037478;28;20061;-72
2022/03/09 11:08:15;;;;;;;27.30;17.30;;;;;;;;;;5041188;28;20045;-72
2022/03/09 11:10:41;;;;;;;29.60;18.20;;;;;;;;;;5034815;28;20079;-72
2022/03/09 11:13:07;;;;;;;29.33;19.40;;;;;;;;;;5044873;28;20515;-72
2022/03/09 11:15:33;;;;;;;26.05;17.52;;;;;;;;;;5042209;28;20079;-72
2022/03/09 11:17:59;;;;;;;30.45;18.60;;;;;;;;;;5037614;28;20029;-72
2022/03/09 11:20:25;;;;;;;27.02;17.90;;;;;;;;;;5043789;28;20044;-72
2022/03/09 11:22:52;;;;;;;28.30;18.05;;;;;;;;;;5033188;28;20041;-72
2022/03/09 11:25:23;;;;;;;30.10;19.15;;;;;;;;;;5041194;28;20094;-72
2022/03/09 11:27:51;;;;;;;32.17;20.73;;;;;;;;;;5038050;28;20025;-71
2022/03/09 11:30:21;;;;;;;31.92;19.00;;;;;;;;;;5044504;28;20079;-72
2022/03/09 11:32:47;;;;;;;29.13;17.15;;;;;;;;;;5043631;28;20036;-72
2022/03/09 11:35:33;;;;;;;34.22;19.65;;;;;;;;;;5039868;28;20454;-72
2022/03/09 11:37:59;;;;;;;30.88;17.52;;;;;;;;;;5037985;28;20056;-71
2022/03/09 11:40:25;;;;;;;28.38;18.33;;;;;;;;;;5043069;28;20041;-71
2022/03/09 11:42:51;;;;;;;28.95;20.00;;;;;;;;;;5038718;28;20108;-72
2022/03/09 11:45:17;;;;;;;29.40;19.13;;;;;;;;;;5033401;28;20052;-73
2022/03/09 11:48:03;;;;;;;39.60;19.23;;;;;;;;;;5039050;28;20037;-72
2022/03/09 11:50:31;;;;;;;26.52;16.92;;;;;;;;;;5042834;28;20124;-72
2022/03/09 11:53:02;;;;;;;26.67;16.10;;;;;;;;;;5042183;28;20478;-73
2022/03/09 11:55:28;;;;;;;24.50;14.75;;;;;;;;;;5041412;28;20048;-72
2022/03/09 11:58:05;;;;;;;20.92;13.85;;;;;;;;;;5035613;28;20124;-72
2022/03/09 12:00:31;;;;;;;22.38;14.35;;;;;;;;;;5033704;28;20117;-72
2022/03/09 12:02:57;;;;;;;22.70;13.38;;;;;;;;;;5045737;28;20029;-72
2022/03/09 12:05:34;;;;;;;20.25;14.07;;;;;;;;;;5041307;28;20148;-72
2022/03/09 12:08:08;;;;;;;23.15;16.00;;;;;;;;;;5045172;28;20017;-72
2022/03/09 12:10:41;;;;;;;24.52;16.88;;;;;;;;;;5051816;28;20115;-72
2022/03/09 12:13:11;;;;;;;34.15;17.45;;;;;;;;;;5049644;28;20031;-72
2022/03/09 12:15:56;;;;;;;24.33;16.27;;;;;;;;;;5051369;28;20510;-72
2022/03/09 12:18:40;;;;;;;33.05;17.65;;;;;;;;;;5042691;28;20041;-72
2022/03/09 12:21:07;;;;;;;22.40;15.88;;;;;;;;;;5044066;28;20040;-72
2022/03/09 12:23:34;;;;;;;23.90;15.65;;;;;;;;;;5047146;28;20411;-72
2022/03/09 12:26:01;;;;;;;25.83;16.15;;;;;;;;;;5048028;28;20040;-72
2022/03/09 12:28:34;;;;;;;26.55;15.18;;;;;;;;;;5051233;28;20035;-72
2022/03/09 12:31:03;;;;;;;27.17;17.17;;;;;;;;;;5045783;28;20381;-71
2022/03/09 12:33:34;;;;;;;28.27;19.08;;;;;;;;;;5041240;28;20041;-72
2022/03/09 12:36:12;;;;;;;24.88;18.27;;;;;;;;;;5047913;28;20078;-72
2022/03/09 12:38:42;;;;;;;28.98;16.75;;;;;;;;;;5044680;28;20044;-72
2022/03/09 12:41:28;;;;;;;29.52;18.50;;;;;;;;;;5045472;28;20033;-73
2022/03/09 12:43:55;;;;;;;33.60;18.10;;;;;;;;;;5046057;28;20526;-73
2022/03/09 12:46:22;;;;;;;29.85;19.98;;;;;;;;;;5047051;28;20752;-72
2022/03/09 12:48:48;;;;;;;28.90;20.20;;;;;;;;;;5046345;28;20051;-72
2022/03/09 12:51:14;;;;;;;30.67;19.13;;;;;;;;;;5042770;28;20468;-72
2022/03/09 12:53:42;;;;;;;29.38;18.67;;;;;;;;;;5051131;28;20033;-72
2022/03/09 12:56:14;;;;;;;28.55;20.20;;;;;;;;;;5048463;28;20424;-72
2022/03/09 12:58:40;;;;;;;28.17;18.65;;;;;;;;;;5046615;28;20065;-72
2022/03/09 13:01:08;;;;;;;30.90;20.80;;;;;;;;;;5038686;28;20057;-72
2022/03/09 13:03:34;;;;;;;31.55;21.17;;;;;;;;;;5046871;28;20060;-71
2022/03/09 13:06:05;;;;;;;29.40;21.42;;;;;;;;;;5045310;28;20028;-72
2022/03/09 13:08:33;;;;;;;29.23;20.08;;;;;;;;;;5049046;28;20033;-72
2022/03/09 13:10:59;;;;;;;27.25;19.80;;;;;;;;;;5047106;28;20033;-72
2022/03/09 13:13:32;;;;;;;27.60;18.88;;;;;;;;;;5044054;28;20041;-72
2022/03/09 13:16:02;;;;;;;28.00;19.05;;;;;;;;;;5037098;28;20029;-72
2022/03/09 13:18:32;;;;;;;27.50;19.20;;;;;;;;;;5041786;28;20029;-72
2022/03/09 13:20:59;;;;;;;31.08;20.13;;;;;;;;;;5041234;28;20033;-72
2022/03/09 13:23:29;;;;;;;33.33;19.65;;;;;;;;;;5047842;28;20508;-72
2022/03/09 13:25:56;;;;;;;26.67;19.17;;;;;;;;;;5047256;28;20029;-72
2022/03/09 13:28:28;;;;;;;29.08;18.92;;;;;;;;;;5042253;28;20033;-72
2022/03/09 13:30:54;;;;;;;;;;;;;;;;;;5047374;28;20039;-72
2022/03/09 13:33:22;;;;;;;31.30;20.17;;;;;;;;;;5036148;28;19917;-72
2022/03/09 13:35:49;;;;;;;33.10;19.52;;;;;;;;;;5041209;28;20025;-72
2022/03/09 13:38:22;;;;;;;27.95;18.95;;;;;;;;;;5044259;28;20029;-72
2022/03/09 13:40:49;;;;;;;28.45;18.15;;;;;;;;;;5043871;28;20033;-72
2022/03/09 13:43:15;;;;;;;26.80;19.75;;;;;;;;;;5038785;28;20048;-72
2022/03/09 13:45:41;;;;;;;28.50;20.30;;;;;;;;;;5034081;28;20124;-72
2022/03/09 13:48:08;;;;;;;28.33;19.10;;;;;;;;;;5039206;28;20029;-72
2022/03/09 13:50:48;;;;;;;31.23;19.20;;;;;;;;;;5037380;28;20480;-72
2022/03/09 13:53:14;;;;;;;28.92;18.20;;;;;;;;;;5047184;28;20123;-72
2022/03/09 13:55:44;;;;;;;28.15;18.77;;;;;;;;;;5039926;28;20040;-71
2022/03/09 13:58:13;;;;;;;31.17;20.02;;;;;;;;;;5037656;28;20101;-72
2022/03/09 14:00:40;;;;;;;32.78;20.30;;;;;;;;;;5040527;28;20036;-72
2022/03/09 14:03:07;;;;;;;29.00;18.85;;;;;;;;;;5038030;28;20040;-72
2022/03/09 14:05:34;;;;;;;31.80;20.90;;;;;;;;;;5043112;28;20074;-72
2022/03/09 14:08:00;;;;;;;32.75;20.13;;;;;;;;;;5036657;28;20477;-72
2022/03/09 14:10:27;;;;;;;29.63;19.30;;;;;;;;;;5042982;28;20034;-72
2022/03/09 14:12:57;;;;;;;31.92;20.00;;;;;;;;;;5048549;28;20104;-72
2022/03/09 14:15:25;;;;;;;30.35;20.50;;;;;;;;;;5042660;28;20043;-72
2022/03/09 14:17:51;;;;;;;30.42;21.17;;;;;;;;;;5044607;28;20033;-73
2022/03/09 14:20:18;;;;;;;28.08;18.00;;;;;;;;;;5044519;28;20103;-72